sensor_id;sensor_type;location;lat;lon;timestamp;temperature;humidity
429;DHT22;201;48.758;9.290;2023-04-24T00:01:40;10.60;2.70
429;DHT22;201;48.758;9.290;2023-04-24T00:04:06;10.60;3.40
429;DHT22;201;48.758;9.290;2023-04-24T00:06:32;10.60;3.50
429;DHT22;201;48.758;9.290;2023-04-24T00:09:02;10.50;3.10
429;DHT22;201;48.758;9.290;2023-04-24T00:11:28;10.60;3.70
429;DHT22;201;48.758;9.290;2023-04-24T00:13:54;10.60;3.80
429;DHT22;201;48.758;9.290;2023-04-24T00:16:21;10.60;3.60
429;DHT22;201;48.758;9.290;2023-04-24T00:18:46;10.60;3.40
429;DHT22;201;48.758;9.290;2023-04-24T00:21:13;10.60;3.40
429;DHT22;201;48.758;9.290;2023-04-24T00:23:39;10.60;3.60
429;DHT22;201;48.758;9.290;2023-04-24T00:26:04;10.60;3.40
429;DHT22;201;48.758;9.290;2023-04-24T00:28:30;10.50;3.80
429;DHT22;201;48.758;9.290;2023-04-24T00:30:55;10.50;4.00
429;DHT22;201;48.758;9.290;2023-04-24T00:33:21;10.50;4.20
429;DHT22;201;48.758;9.290;2023-04-24T00:35:47;10.50;4.90
429;DHT22;201;48.758;9.290;2023-04-24T00:38:12;10.50;4.40
429;DHT22;201;48.758;9.290;2023-04-24T00:40:38;10.50;4.20
429;DHT22;201;48.758;9.290;2023-04-24T00:43:03;10.60;4.30
429;DHT22;201;48.758;9.290;2023-04-24T00:45:29;10.60;3.90
429;DHT22;201;48.758;9.290;2023-04-24T00:47:56;10.60;3.70
429;DHT22;201;48.758;9.290;2023-04-24T00:50:23;10.70;3.00
429;DHT22;201;48.758;9.290;2023-04-24T00:52:49;10.70;3.00
429;DHT22;201;48.758;9.290;2023-04-24T00:55:15;10.70;2.80
429;DHT22;201;48.758;9.290;2023-04-24T00:57:41;10.60;2.40
429;DHT22;201;48.758;9.290;2023-04-24T01:00:07;10.60;2.50
429;DHT22;201;48.758;9.290;2023-04-24T01:02:37;10.60;2.60
429;DHT22;201;48.758;9.290;2023-04-24T01:05:06;10.60;2.70
429;DHT22;201;48.758;9.290;2023-04-24T01:07:33;10.60;2.40
429;DHT22;201;48.758;9.290;2023-04-24T01:09:59;10.60;2.50
429;DHT22;201;48.758;9.290;2023-04-24T01:12:25;10.70;2.00
429;DHT22;201;48.758;9.290;2023-04-24T01:14:50;10.70;1.20
429;DHT22;201;48.758;9.290;2023-04-24T01:17:16;10.70;1.20
429;DHT22;201;48.758;9.290;2023-04-24T01:19:42;10.80;1.70
429;DHT22;201;48.758;9.290;2023-04-24T01:22:16;10.80;1.30
429;DHT22;201;48.758;9.290;2023-04-24T01:24:42;10.80;1.30
429;DHT22;201;48.758;9.290;2023-04-24T01:27:09;10.80;1.30
429;DHT22;201;48.758;9.290;2023-04-24T01:29:35;10.80;1.30
429;DHT22;201;48.758;9.290;2023-04-24T01:32:01;10.80;1.30
429;DHT22;201;48.758;9.290;2023-04-24T01:34:27;10.80;1.30
429;DHT22;201;48.758;9.290;2023-04-24T01:36:53;10.80;1.30
429;DHT22;201;48.758;9.290;2023-04-24T01:39:18;10.90;1.40
429;DHT22;201;48.758;9.290;2023-04-24T01:41:46;10.80;1.60
429;DHT22;201;48.758;9.290;2023-04-24T01:44:12;10.90;2.20
429;DHT22;201;48.758;9.290;2023-04-24T01:46:38;10.80;1.30
429;DHT22;201;48.758;9.290;2023-04-24T01:49:03;10.80;2.00
429;DHT22;201;48.758;9.290;2023-04-24T01:51:29;10.70;2.20
429;DHT22;201;48.758;9.290;2023-04-24T01:53:55;10.70;2.20
429;DHT22;201;48.758;9.290;2023-04-24T01:56:21;10.60;2.30
429;DHT22;201;48.758;9.290;2023-04-24T01:58:48;10.60;2.30
429;DHT22;201;48.758;9.290;2023-04-24T02:01:18;10.60;2.50
429;DHT22;201;48.758;9.290;2023-04-24T02:03:43;10.70;2.50
429;DHT22;201;48.758;9.290;2023-04-24T02:06:09;10.70;2.30
429;DHT22;201;48.758;9.290;2023-04-24T02:08:34;10.60;2.20
429;DHT22;201;48.758;9.290;2023-04-24T02:11:00;10.60;2.00
429;DHT22;201;48.758;9.290;2023-04-24T02:13:27;10.60;1.50
429;DHT22;201;48.758;9.290;2023-04-24T02:15:53;10.60;1.40
429;DHT22;201;48.758;9.290;2023-04-24T02:18:19;10.60;1.40
429;DHT22;201;48.758;9.290;2023-04-24T02:20:45;10.60;2.00
429;DHT22;201;48.758;9.290;2023-04-24T02:23:10;10.60;2.30
429;DHT22;201;48.758;9.290;2023-04-24T02:25:36;10.60;2.40
429;DHT22;201;48.758;9.290;2023-04-24T02:28:01;10.60;2.00
429;DHT22;201;48.758;9.290;2023-04-24T02:30:28;10.60;2.50
429;DHT22;201;48.758;9.290;2023-04-24T02:32:53;10.50;2.30
429;DHT22;201;48.758;9.290;2023-04-24T02:35:19;10.50;2.10
429;DHT22;201;48.758;9.290;2023-04-24T02:37:45;10.50;2.40
429;DHT22;201;48.758;9.290;2023-04-24T02:40:11;10.50;2.60
429;DHT22;201;48.758;9.290;2023-04-24T02:42:36;10.40;2.90
429;DHT22;201;48.758;9.290;2023-04-24T02:45:02;10.40;2.90
429;DHT22;201;48.758;9.290;2023-04-24T02:47:28;10.40;3.10
429;DHT22;201;48.758;9.290;2023-04-24T02:49:53;10.40;3.50
429;DHT22;201;48.758;9.290;2023-04-24T02:52:19;10.40;3.50
429;DHT22;201;48.758;9.290;2023-04-24T02:54:44;10.50;3.30
429;DHT22;201;48.758;9.290;2023-04-24T02:57:10;10.50;3.50
429;DHT22;201;48.758;9.290;2023-04-24T02:59:35;10.50;3.90
429;DHT22;201;48.758;9.290;2023-04-24T03:02:01;10.50;4.90
429;DHT22;201;48.758;9.290;2023-04-24T03:04:26;10.50;4.60
429;DHT22;201;48.758;9.290;2023-04-24T03:06:52;10.50;5.20
429;DHT22;201;48.758;9.290;2023-04-24T03:09:22;10.40;5.00
429;DHT22;201;48.758;9.290;2023-04-24T03:11:48;10.40;5.40
429;DHT22;201;48.758;9.290;2023-04-24T03:14:14;10.40;5.70
429;DHT22;201;48.758;9.290;2023-04-24T03:16:40;10.30;5.80
429;DHT22;201;48.758;9.290;2023-04-24T03:19:06;10.30;6.40
429;DHT22;201;48.758;9.290;2023-04-24T03:21:31;10.30;5.80
429;DHT22;201;48.758;9.290;2023-04-24T03:23:57;10.30;5.70
429;DHT22;201;48.758;9.290;2023-04-24T03:26:22;10.30;6.40
429;DHT22;201;48.758;9.290;2023-04-24T03:28:48;10.30;6.30
429;DHT22;201;48.758;9.290;2023-04-24T03:31:13;10.20;6.10
429;DHT22;201;48.758;9.290;2023-04-24T03:33:40;10.20;6.20
429;DHT22;201;48.758;9.290;2023-04-24T03:36:06;10.10;6.40
429;DHT22;201;48.758;9.290;2023-04-24T03:38:32;10.10;6.90
429;DHT22;201;48.758;9.290;2023-04-24T03:40:57;10.10;6.70
429;DHT22;201;48.758;9.290;2023-04-24T03:43:23;10.10;7.10
429;DHT22;201;48.758;9.290;2023-04-24T03:45:48;10.10;7.30
429;DHT22;201;48.758;9.290;2023-04-24T03:48:14;10.00;7.60
429;DHT22;201;48.758;9.290;2023-04-24T03:50:40;10.00;7.60
429;DHT22;201;48.758;9.290;2023-04-24T03:53:05;10.00;7.80
429;DHT22;201;48.758;9.290;2023-04-24T03:55:31;10.00;7.90
429;DHT22;201;48.758;9.290;2023-04-24T03:57:56;10.00;8.00
429;DHT22;201;48.758;9.290;2023-04-24T04:00:22;10.00;8.40
429;DHT22;201;48.758;9.290;2023-04-24T04:02:47;10.00;8.40
429;DHT22;201;48.758;9.290;2023-04-24T04:05:13;9.90;9.10
429;DHT22;201;48.758;9.290;2023-04-24T04:07:38;9.90;9.40
429;DHT22;201;48.758;9.290;2023-04-24T04:10:04;9.80;10.20
429;DHT22;201;48.758;9.290;2023-04-24T04:12:32;9.70;10.10
429;DHT22;201;48.758;9.290;2023-04-24T04:14:57;9.80;10.20
429;DHT22;201;48.758;9.290;2023-04-24T04:17:23;9.80;10.20
429;DHT22;201;48.758;9.290;2023-04-24T04:19:48;9.80;10.20
429;DHT22;201;48.758;9.290;2023-04-24T04:22:14;9.80;10.20
429;DHT22;201;48.758;9.290;2023-04-24T04:24:39;9.80;10.20
429;DHT22;201;48.758;9.290;2023-04-24T04:27:06;9.90;10.30
429;DHT22;201;48.758;9.290;2023-04-24T04:29:31;9.90;10.20
429;DHT22;201;48.758;9.290;2023-04-24T04:31:57;9.90;9.20
429;DHT22;201;48.758;9.290;2023-04-24T04:34:23;10.00;8.60
429;DHT22;201;48.758;9.290;2023-04-24T04:36:49;10.00;9.50
429;DHT22;201;48.758;9.290;2023-04-24T04:39:15;10.00;9.50
429;DHT22;201;48.758;9.290;2023-04-24T04:41:41;10.00;9.50
429;DHT22;201;48.758;9.290;2023-04-24T04:44:07;10.10;10.50
429;DHT22;201;48.758;9.290;2023-04-24T04:46:34;10.10;10.80
429;DHT22;201;48.758;9.290;2023-04-24T04:49:00;9.90;10.20
429;DHT22;201;48.758;9.290;2023-04-24T04:51:26;9.70;10.10
429;DHT22;201;48.758;9.290;2023-04-24T04:53:52;9.70;11.30
429;DHT22;201;48.758;9.290;2023-04-24T04:56:18;9.60;10.00
429;DHT22;201;48.758;9.290;2023-04-24T04:58:43;9.60;11.10
429;DHT22;201;48.758;9.290;2023-04-24T05:01:09;9.60;11.20
429;DHT22;201;48.758;9.290;2023-04-24T05:03:34;9.60;10.10
429;DHT22;201;48.758;9.290;2023-04-24T05:06:01;9.50;9.90
429;DHT22;201;48.758;9.290;2023-04-24T05:08:27;9.40;10.90
429;DHT22;201;48.758;9.290;2023-04-24T05:10:54;9.40;11.00
429;DHT22;201;48.758;9.290;2023-04-24T05:13:20;9.40;10.10
429;DHT22;201;48.758;9.290;2023-04-24T05:15:45;9.30;9.80
429;DHT22;201;48.758;9.290;2023-04-24T05:18:11;9.20;9.80
429;DHT22;201;48.758;9.290;2023-04-24T05:20:36;9.30;9.00
429;DHT22;201;48.758;9.290;2023-04-24T05:23:02;9.30;9.80
429;DHT22;201;48.758;9.290;2023-04-24T05:25:27;9.30;9.80
429;DHT22;201;48.758;9.290;2023-04-24T05:27:53;9.30;9.80
429;DHT22;201;48.758;9.290;2023-04-24T05:30:19;9.30;9.70
429;DHT22;201;48.758;9.290;2023-04-24T05:32:45;9.20;9.40
429;DHT22;201;48.758;9.290;2023-04-24T05:35:10;9.30;9.80
429;DHT22;201;48.758;9.290;2023-04-24T05:37:36;9.20;9.80
429;DHT22;201;48.758;9.290;2023-04-24T05:40:02;9.30;9.80
429;DHT22;201;48.758;9.290;2023-04-24T05:42:29;9.30;8.40
429;DHT22;201;48.758;9.290;2023-04-24T05:44:55;9.20;8.10
429;DHT22;201;48.758;9.290;2023-04-24T05:47:20;9.20;8.60
429;DHT22;201;48.758;9.290;2023-04-24T05:49:47;9.20;9.20
429;DHT22;201;48.758;9.290;2023-04-24T05:52:13;9.30;9.40
429;DHT22;201;48.758;9.290;2023-04-24T05:54:39;9.30;9.20
429;DHT22;201;48.758;9.290;2023-04-24T05:57:04;9.40;8.90
429;DHT22;201;48.758;9.290;2023-04-24T05:59:33;9.50;8.00
429;DHT22;201;48.758;9.290;2023-04-24T06:01:59;9.60;7.70
429;DHT22;201;48.758;9.290;2023-04-24T06:04:25;9.70;7.40
429;DHT22;201;48.758;9.290;2023-04-24T06:06:50;9.80;7.70
429;DHT22;201;48.758;9.290;2023-04-24T06:09:24;9.90;7.60
429;DHT22;201;48.758;9.290;2023-04-24T06:11:50;9.90;6.90
429;DHT22;201;48.758;9.290;2023-04-24T06:14:18;9.90;6.30
429;DHT22;201;48.758;9.290;2023-04-24T06:16:44;10.00;5.90
429;DHT22;201;48.758;9.290;2023-04-24T06:19:09;10.10;6.20
429;DHT22;201;48.758;9.290;2023-04-24T06:21:35;10.20;3.80
429;DHT22;201;48.758;9.290;2023-04-24T06:24:00;10.60;4.70
429;DHT22;201;48.758;9.290;2023-04-24T06:26:27;11.20;3.30
429;DHT22;201;48.758;9.290;2023-04-24T06:28:53;13.00;1.00
429;DHT22;201;48.758;9.290;2023-04-24T06:31:19;14.40;1.00
429;DHT22;201;48.758;9.290;2023-04-24T06:33:45;16.10;1.00
429;DHT22;201;48.758;9.290;2023-04-24T06:36:12;17.00;1.00
429;DHT22;201;48.758;9.290;2023-04-24T06:38:37;17.20;1.00
429;DHT22;201;48.758;9.290;2023-04-24T06:41:03;18.60;1.00
429;DHT22;201;48.758;9.290;2023-04-24T06:43:30;19.50;1.00
429;DHT22;201;48.758;9.290;2023-04-24T06:45:57;20.70;1.00
429;DHT22;201;48.758;9.290;2023-04-24T06:48:23;20.70;1.00
429;DHT22;201;48.758;9.290;2023-04-24T06:50:49;22.20;1.00
429;DHT22;201;48.758;9.290;2023-04-24T06:53:15;23.40;1.00
429;DHT22;201;48.758;9.290;2023-04-24T06:55:40;23.20;1.00
429;DHT22;201;48.758;9.290;2023-04-24T06:58:06;22.10;1.00
429;DHT22;201;48.758;9.290;2023-04-24T07:00:32;21.50;1.00
429;DHT22;201;48.758;9.290;2023-04-24T07:02:57;21.20;1.00
429;DHT22;201;48.758;9.290;2023-04-24T07:05:23;21.40;1.00
429;DHT22;201;48.758;9.290;2023-04-24T07:07:48;21.20;1.00
429;DHT22;201;48.758;9.290;2023-04-24T07:10:15;20.20;1.00
429;DHT22;201;48.758;9.290;2023-04-24T07:12:40;20.30;1.00
429;DHT22;201;48.758;9.290;2023-04-24T07:15:07;19.50;1.00
429;DHT22;201;48.758;9.290;2023-04-24T07:17:34;17.80;1.00
429;DHT22;201;48.758;9.290;2023-04-24T07:20:00;16.40;1.00
429;DHT22;201;48.758;9.290;2023-04-24T07:22:26;16.20;1.00
429;DHT22;201;48.758;9.290;2023-04-24T07:24:51;15.70;1.00
429;DHT22;201;48.758;9.290;2023-04-24T07:27:17;15.00;1.00
429;DHT22;201;48.758;9.290;2023-04-24T07:29:42;14.90;1.00
429;DHT22;201;48.758;9.290;2023-04-24T07:32:08;14.40;1.00
429;DHT22;201;48.758;9.290;2023-04-24T07:34:34;13.20;1.00
429;DHT22;201;48.758;9.290;2023-04-24T07:37:00;11.90;1.00
429;DHT22;201;48.758;9.290;2023-04-24T07:39:26;11.50;1.00
429;DHT22;201;48.758;9.290;2023-04-24T07:41:51;11.40;1.00
429;DHT22;201;48.758;9.290;2023-04-24T07:44:17;11.30;1.00
429;DHT22;201;48.758;9.290;2023-04-24T07:46:43;11.50;1.00
429;DHT22;201;48.758;9.290;2023-04-24T07:49:08;12.00;1.00
429;DHT22;201;48.758;9.290;2023-04-24T07:51:34;12.70;1.00
429;DHT22;201;48.758;9.290;2023-04-24T07:54:04;14.10;1.00
429;DHT22;201;48.758;9.290;2023-04-24T07:56:31;17.20;1.00
429;DHT22;201;48.758;9.290;2023-04-24T07:58:57;19.50;1.00
429;DHT22;201;48.758;9.290;2023-04-24T08:01:22;21.20;1.00
429;DHT22;201;48.758;9.290;2023-04-24T08:03:48;21.40;1.00
429;DHT22;201;48.758;9.290;2023-04-24T08:06:13;19.90;1.00
429;DHT22;201;48.758;9.290;2023-04-24T08:08:39;17.90;1.00
429;DHT22;201;48.758;9.290;2023-04-24T08:11:05;16.10;1.00
429;DHT22;201;48.758;9.290;2023-04-24T08:13:30;14.90;1.00
429;DHT22;201;48.758;9.290;2023-04-24T08:15:56;13.90;1.00
429;DHT22;201;48.758;9.290;2023-04-24T08:18:22;13.40;1.00
429;DHT22;201;48.758;9.290;2023-04-24T08:20:47;13.00;1.00
429;DHT22;201;48.758;9.290;2023-04-24T08:23:13;12.40;1.00
429;DHT22;201;48.758;9.290;2023-04-24T08:25:39;12.40;1.00
429;DHT22;201;48.758;9.290;2023-04-24T08:28:06;12.40;1.00
429;DHT22;201;48.758;9.290;2023-04-24T08:30:32;12.30;1.00
429;DHT22;201;48.758;9.290;2023-04-24T08:32:57;12.10;1.00
429;DHT22;201;48.758;9.290;2023-04-24T08:35:23;12.70;1.00
429;DHT22;201;48.758;9.290;2023-04-24T08:37:49;14.10;1.00
429;DHT22;201;48.758;9.290;2023-04-24T08:40:16;16.70;1.00
429;DHT22;201;48.758;9.290;2023-04-24T08:42:43;18.40;1.00
429;DHT22;201;48.758;9.290;2023-04-24T08:45:10;20.70;1.00
429;DHT22;201;48.758;9.290;2023-04-24T08:47:38;22.40;1.00
429;DHT22;201;48.758;9.290;2023-04-24T08:50:04;21.70;1.00
429;DHT22;201;48.758;9.290;2023-04-24T08:52:32;19.80;1.00
429;DHT22;201;48.758;9.290;2023-04-24T08:55:00;18.30;1.00
429;DHT22;201;48.758;9.290;2023-04-24T08:57:26;18.10;1.00
429;DHT22;201;48.758;9.290;2023-04-24T08:59:53;18.30;1.00
429;DHT22;201;48.758;9.290;2023-04-24T09:02:18;17.20;1.00
429;DHT22;201;48.758;9.290;2023-04-24T09:04:45;15.90;1.00
429;DHT22;201;48.758;9.290;2023-04-24T09:07:12;16.10;1.00
429;DHT22;201;48.758;9.290;2023-04-24T09:09:40;18.20;1.00
429;DHT22;201;48.758;9.290;2023-04-24T09:12:06;20.60;1.00
429;DHT22;201;48.758;9.290;2023-04-24T09:14:34;20.80;1.00
429;DHT22;201;48.758;9.290;2023-04-24T09:17:02;18.60;1.00
429;DHT22;201;48.758;9.290;2023-04-24T09:19:27;17.30;1.00
429;DHT22;201;48.758;9.290;2023-04-24T09:21:53;15.90;1.00
429;DHT22;201;48.758;9.290;2023-04-24T09:24:21;14.90;1.00
429;DHT22;201;48.758;9.290;2023-04-24T09:26:56;14.40;1.00
429;DHT22;201;48.758;9.290;2023-04-24T09:29:24;13.70;1.00
429;DHT22;201;48.758;9.290;2023-04-24T09:31:49;13.20;1.00
429;DHT22;201;48.758;9.290;2023-04-24T09:34:26;13.00;1.00
429;DHT22;201;48.758;9.290;2023-04-24T09:36:52;13.00;1.00
429;DHT22;201;48.758;9.290;2023-04-24T09:39:18;13.10;1.00
429;DHT22;201;48.758;9.290;2023-04-24T09:41:52;13.00;1.00
429;DHT22;201;48.758;9.290;2023-04-24T09:44:19;12.90;1.00
429;DHT22;201;48.758;9.290;2023-04-24T09:46:50;13.50;1.00
429;DHT22;201;48.758;9.290;2023-04-24T09:49:22;15.60;1.00
429;DHT22;201;48.758;9.290;2023-04-24T09:51:48;16.40;1.00
429;DHT22;201;48.758;9.290;2023-04-24T09:54:15;18.10;1.00
429;DHT22;201;48.758;9.290;2023-04-24T09:56:45;21.20;1.00
429;DHT22;201;48.758;9.290;2023-04-24T09:59:12;24.00;1.00
429;DHT22;201;48.758;9.290;2023-04-24T10:01:38;24.10;1.00
429;DHT22;201;48.758;9.290;2023-04-24T10:06:47;17.90;1.00
429;DHT22;201;48.758;9.290;2023-04-24T10:09:22;15.80;1.00
429;DHT22;201;48.758;9.290;2023-04-24T10:11:49;15.00;1.00
429;DHT22;201;48.758;9.290;2023-04-24T10:14:17;14.30;1.00
429;DHT22;201;48.758;9.290;2023-04-24T10:16:44;13.80;1.00
429;DHT22;201;48.758;9.290;2023-04-24T10:19:12;13.40;1.00
429;DHT22;201;48.758;9.290;2023-04-24T10:21:39;12.80;1.00
429;DHT22;201;48.758;9.290;2023-04-24T10:24:08;13.10;1.00
429;DHT22;201;48.758;9.290;2023-04-24T10:26:34;14.90;1.00
429;DHT22;201;48.758;9.290;2023-04-24T10:29:00;18.30;1.00
429;DHT22;201;48.758;9.290;2023-04-24T10:31:28;20.10;1.00
429;DHT22;201;48.758;9.290;2023-04-24T10:33:56;20.40;1.00
429;DHT22;201;48.758;9.290;2023-04-24T10:36:24;20.50;1.00
429;DHT22;201;48.758;9.290;2023-04-24T10:38:53;20.30;1.00
429;DHT22;201;48.758;9.290;2023-04-24T10:41:20;19.30;1.00
429;DHT22;201;48.758;9.290;2023-04-24T10:43:48;19.20;1.00
429;DHT22;201;48.758;9.290;2023-04-24T10:46:30;17.70;1.00
429;DHT22;201;48.758;9.290;2023-04-24T10:48:55;16.70;1.00
429;DHT22;201;48.758;9.290;2023-04-24T10:51:23;16.00;1.00
429;DHT22;201;48.758;9.290;2023-04-24T10:53:52;15.60;1.00
429;DHT22;201;48.758;9.290;2023-04-24T10:56:18;14.40;1.00
429;DHT22;201;48.758;9.290;2023-04-24T10:58:45;13.80;1.00
429;DHT22;201;48.758;9.290;2023-04-24T11:01:27;13.50;1.00
429;DHT22;201;48.758;9.290;2023-04-24T11:03:58;13.00;1.00
429;DHT22;201;48.758;9.290;2023-04-24T11:06:30;12.80;1.00
429;DHT22;201;48.758;9.290;2023-04-24T11:09:07;12.50;1.00
429;DHT22;201;48.758;9.290;2023-04-24T11:11:35;12.20;1.00
429;DHT22;201;48.758;9.290;2023-04-24T11:14:02;11.90;1.00
429;DHT22;201;48.758;9.290;2023-04-24T11:21:57;11.70;1.00
429;DHT22;201;48.758;9.290;2023-04-24T11:27:19;11.40;1.00
429;DHT22;201;48.758;9.290;2023-04-24T11:32:41;11.30;1.00
429;DHT22;201;48.758;9.290;2023-04-24T11:35:20;11.50;1.00
429;DHT22;201;48.758;9.290;2023-04-24T11:37:48;11.70;1.00
429;DHT22;201;48.758;9.290;2023-04-24T11:40:15;11.90;1.00
429;DHT22;201;48.758;9.290;2023-04-24T11:42:46;12.20;1.00
429;DHT22;201;48.758;9.290;2023-04-24T11:45:12;12.60;1.00
429;DHT22;201;48.758;9.290;2023-04-24T11:47:39;13.00;1.00
429;DHT22;201;48.758;9.290;2023-04-24T11:50:07;13.40;1.00
429;DHT22;201;48.758;9.290;2023-04-24T11:52:37;13.00;1.00
429;DHT22;201;48.758;9.290;2023-04-24T11:55:03;13.10;1.00
429;DHT22;201;48.758;9.290;2023-04-24T11:57:29;13.00;1.00
429;DHT22;201;48.758;9.290;2023-04-24T12:00:03;12.70;1.00
429;DHT22;201;48.758;9.290;2023-04-24T12:02:30;12.50;1.00
429;DHT22;201;48.758;9.290;2023-04-24T12:04:55;12.00;1.00
429;DHT22;201;48.758;9.290;2023-04-24T12:07:23;11.70;1.00
429;DHT22;201;48.758;9.290;2023-04-24T12:09:57;11.80;1.00
429;DHT22;201;48.758;9.290;2023-04-24T12:12:28;12.10;1.00
429;DHT22;201;48.758;9.290;2023-04-24T12:14:56;12.30;1.00
429;DHT22;201;48.758;9.290;2023-04-24T12:17:26;12.90;1.00
429;DHT22;201;48.758;9.290;2023-04-24T12:19:52;13.80;1.00
429;DHT22;201;48.758;9.290;2023-04-24T12:22:18;14.50;1.00
429;DHT22;201;48.758;9.290;2023-04-24T12:25:01;15.00;1.00
429;DHT22;201;48.758;9.290;2023-04-24T12:27:34;14.90;1.00
429;DHT22;201;48.758;9.290;2023-04-24T12:30:03;14.20;1.00
429;DHT22;201;48.758;9.290;2023-04-24T12:32:28;13.70;1.00
429;DHT22;201;48.758;9.290;2023-04-24T12:34:55;13.00;1.00
429;DHT22;201;48.758;9.290;2023-04-24T12:37:23;12.80;1.00
429;DHT22;201;48.758;9.290;2023-04-24T12:40:08;12.50;1.00
429;DHT22;201;48.758;9.290;2023-04-24T12:42:34;12.20;1.00
429;DHT22;201;48.758;9.290;2023-04-24T12:45:06;12.10;1.00
429;DHT22;201;48.758;9.290;2023-04-24T12:47:33;12.50;1.00
429;DHT22;201;48.758;9.290;2023-04-24T12:50:00;12.70;1.00
429;DHT22;201;48.758;9.290;2023-04-24T12:52:27;12.70;1.00
429;DHT22;201;48.758;9.290;2023-04-24T12:54:53;12.90;1.00
429;DHT22;201;48.758;9.290;2023-04-24T12:57:21;13.30;1.00
429;DHT22;201;48.758;9.290;2023-04-24T12:59:46;13.60;1.00
429;DHT22;201;48.758;9.290;2023-04-24T13:02:12;13.50;1.00
429;DHT22;201;48.758;9.290;2023-04-24T13:04:38;13.10;1.00
429;DHT22;201;48.758;9.290;2023-04-24T13:07:05;12.70;1.00
429;DHT22;201;48.758;9.290;2023-04-24T13:09:31;12.00;1.00
429;DHT22;201;48.758;9.290;2023-04-24T13:11:57;11.60;1.00
429;DHT22;201;48.758;9.290;2023-04-24T13:14:23;11.20;1.00
429;DHT22;201;48.758;9.290;2023-04-24T13:16:49;11.00;1.00
429;DHT22;201;48.758;9.290;2023-04-24T13:19:14;11.00;1.00
429;DHT22;201;48.758;9.290;2023-04-24T13:21:40;11.00;1.00
429;DHT22;201;48.758;9.290;2023-04-24T13:24:06;10.90;1.00
429;DHT22;201;48.758;9.290;2023-04-24T13:26:33;11.00;1.00
429;DHT22;201;48.758;9.290;2023-04-24T13:28:58;11.10;1.00
429;DHT22;201;48.758;9.290;2023-04-24T13:31:24;11.50;1.00
429;DHT22;201;48.758;9.290;2023-04-24T13:33:49;11.50;1.00
429;DHT22;201;48.758;9.290;2023-04-24T13:36:15;11.60;1.00
429;DHT22;201;48.758;9.290;2023-04-24T13:38:43;11.70;1.00
429;DHT22;201;48.758;9.290;2023-04-24T13:41:09;11.70;1.00
429;DHT22;201;48.758;9.290;2023-04-24T13:43:35;11.80;1.00
429;DHT22;201;48.758;9.290;2023-04-24T13:46:01;12.00;1.00
429;DHT22;201;48.758;9.290;2023-04-24T13:48:28;11.90;1.00
429;DHT22;201;48.758;9.290;2023-04-24T13:50:54;12.00;1.00
429;DHT22;201;48.758;9.290;2023-04-24T13:53:19;11.90;1.00
429;DHT22;201;48.758;9.290;2023-04-24T13:55:45;12.10;1.00
429;DHT22;201;48.758;9.290;2023-04-24T13:58:11;11.90;1.00
429;DHT22;201;48.758;9.290;2023-04-24T14:00:36;11.40;1.00
429;DHT22;201;48.758;9.290;2023-04-24T14:03:02;10.90;1.00
429;DHT22;201;48.758;9.290;2023-04-24T14:05:27;10.60;1.00
429;DHT22;201;48.758;9.290;2023-04-24T14:07:53;10.40;1.00
429;DHT22;201;48.758;9.290;2023-04-24T14:10:18;10.30;1.00
429;DHT22;201;48.758;9.290;2023-04-24T14:12:44;10.40;1.00
429;DHT22;201;48.758;9.290;2023-04-24T14:15:10;10.50;1.00
429;DHT22;201;48.758;9.290;2023-04-24T14:17:36;10.70;1.00
429;DHT22;201;48.758;9.290;2023-04-24T14:20:02;10.90;1.00
429;DHT22;201;48.758;9.290;2023-04-24T14:22:29;11.20;1.00
429;DHT22;201;48.758;9.290;2023-04-24T14:24:54;11.70;1.00
429;DHT22;201;48.758;9.290;2023-04-24T14:27:20;12.20;1.00
429;DHT22;201;48.758;9.290;2023-04-24T14:29:45;12.50;1.00
429;DHT22;201;48.758;9.290;2023-04-24T14:32:12;12.70;1.00
429;DHT22;201;48.758;9.290;2023-04-24T14:34:40;12.60;1.00
429;DHT22;201;48.758;9.290;2023-04-24T14:37:07;12.50;1.00
429;DHT22;201;48.758;9.290;2023-04-24T14:39:32;12.40;1.00
429;DHT22;201;48.758;9.290;2023-04-24T14:41:58;12.30;1.00
429;DHT22;201;48.758;9.290;2023-04-24T14:44:23;12.00;1.00
429;DHT22;201;48.758;9.290;2023-04-24T14:46:49;11.30;1.00
429;DHT22;201;48.758;9.290;2023-04-24T14:49:15;11.10;1.00
429;DHT22;201;48.758;9.290;2023-04-24T14:51:40;11.20;1.00
429;DHT22;201;48.758;9.290;2023-04-24T14:54:06;11.50;1.00
429;DHT22;201;48.758;9.290;2023-04-24T14:56:32;11.80;1.00
429;DHT22;201;48.758;9.290;2023-04-24T14:58:58;12.00;1.00
429;DHT22;201;48.758;9.290;2023-04-24T15:01:23;12.40;1.00
429;DHT22;201;48.758;9.290;2023-04-24T15:03:49;12.30;1.00
429;DHT22;201;48.758;9.290;2023-04-24T15:06:15;12.30;1.00
429;DHT22;201;48.758;9.290;2023-04-24T15:08:41;12.50;1.00
429;DHT22;201;48.758;9.290;2023-04-24T15:11:07;12.60;1.00
429;DHT22;201;48.758;9.290;2023-04-24T15:13:33;13.00;1.00
429;DHT22;201;48.758;9.290;2023-04-24T15:15:59;13.60;1.00
429;DHT22;201;48.758;9.290;2023-04-24T15:18:27;13.50;1.00
429;DHT22;201;48.758;9.290;2023-04-24T15:20:54;13.70;1.00
429;DHT22;201;48.758;9.290;2023-04-24T15:23:20;13.40;1.00
429;DHT22;201;48.758;9.290;2023-04-24T15:25:45;12.70;1.00
429;DHT22;201;48.758;9.290;2023-04-24T15:28:11;12.40;1.00
429;DHT22;201;48.758;9.290;2023-04-24T15:30:37;12.10;1.00
429;DHT22;201;48.758;9.290;2023-04-24T15:33:03;11.90;1.00
429;DHT22;201;48.758;9.290;2023-04-24T15:35:28;11.70;1.00
429;DHT22;201;48.758;9.290;2023-04-24T15:37:54;11.70;1.00
429;DHT22;201;48.758;9.290;2023-04-24T15:40:20;11.70;1.00
429;DHT22;201;48.758;9.290;2023-04-24T15:42:45;11.50;1.00
429;DHT22;201;48.758;9.290;2023-04-24T15:45:11;11.50;1.00
429;DHT22;201;48.758;9.290;2023-04-24T15:47:37;11.60;1.00
429;DHT22;201;48.758;9.290;2023-04-24T15:50:04;11.60;1.00
429;DHT22;201;48.758;9.290;2023-04-24T15:52:29;11.50;1.00
429;DHT22;201;48.758;9.290;2023-04-24T15:54:55;11.50;1.00
429;DHT22;201;48.758;9.290;2023-04-24T15:57:21;11.40;1.00
429;DHT22;201;48.758;9.290;2023-04-24T15:59:46;11.10;1.00
429;DHT22;201;48.758;9.290;2023-04-24T16:02:13;10.90;1.00
429;DHT22;201;48.758;9.290;2023-04-24T16:04:49;11.20;1.00
429;DHT22;201;48.758;9.290;2023-04-24T16:07:15;11.40;1.00
429;DHT22;201;48.758;9.290;2023-04-24T16:09:44;11.50;1.00
429;DHT22;201;48.758;9.290;2023-04-24T16:12:10;11.40;1.00
429;DHT22;201;48.758;9.290;2023-04-24T16:14:36;11.20;1.00
429;DHT22;201;48.758;9.290;2023-04-24T16:17:02;11.00;1.00
429;DHT22;201;48.758;9.290;2023-04-24T16:19:28;11.10;1.00
429;DHT22;201;48.758;9.290;2023-04-24T16:21:54;11.30;1.00
429;DHT22;201;48.758;9.290;2023-04-24T16:24:23;11.70;1.00
429;DHT22;201;48.758;9.290;2023-04-24T16:26:50;12.10;1.00
429;DHT22;201;48.758;9.290;2023-04-24T16:29:16;12.10;1.00
429;DHT22;201;48.758;9.290;2023-04-24T16:31:42;12.00;1.00
429;DHT22;201;48.758;9.290;2023-04-24T16:34:07;11.80;1.00
429;DHT22;201;48.758;9.290;2023-04-24T16:36:34;11.60;1.00
429;DHT22;201;48.758;9.290;2023-04-24T16:39:00;11.30;1.00
429;DHT22;201;48.758;9.290;2023-04-24T16:41:26;11.20;1.00
429;DHT22;201;48.758;9.290;2023-04-24T16:43:52;11.00;1.00
429;DHT22;201;48.758;9.290;2023-04-24T16:46:18;11.00;1.00
429;DHT22;201;48.758;9.290;2023-04-24T16:48:44;11.10;1.00
429;DHT22;201;48.758;9.290;2023-04-24T16:51:09;11.20;1.00
429;DHT22;201;48.758;9.290;2023-04-24T16:53:35;11.30;1.00
429;DHT22;201;48.758;9.290;2023-04-24T16:56:01;11.50;1.00
429;DHT22;201;48.758;9.290;2023-04-24T16:58:27;11.50;1.00
429;DHT22;201;48.758;9.290;2023-04-24T17:00:53;11.50;1.00
429;DHT22;201;48.758;9.290;2023-04-24T17:03:18;11.60;1.00